createdAt,value
2023-02-17T00:00:46.640Z,8.86
2023-02-17T00:01:40.572Z,8.63
2023-02-17T00:02:20.648Z,8.70
2023-02-17T00:03:05.583Z,8.85
2023-02-17T00:03:45.684Z,8.88
2023-02-17T00:04:19.624Z,8.88
2023-02-17T00:05:06.571Z,8.80
2023-02-17T00:05:40.612Z,8.93
2023-02-17T00:06:32.587Z,8.88
2023-02-17T00:07:06.633Z,8.91
2023-02-17T00:07:53.556Z,9.02
2023-02-17T00:08:27.728Z,9.04
2023-02-17T00:09:08.601Z,9.00
2023-02-17T00:09:48.621Z,9.15
2023-02-17T00:10:28.554Z,9.07
2023-02-17T00:11:08.608Z,9.16
2023-02-17T00:11:48.555Z,9.08
2023-02-17T00:12:28.664Z,9.22
2023-02-17T00:13:08.560Z,9.15
2023-02-17T00:13:48.600Z,9.00
2023-02-17T00:14:28.551Z,8.96
2023-02-17T00:15:08.632Z,9.07
2023-02-17T00:15:48.646Z,9.02
2023-02-17T00:16:32.044Z,9.10
2023-02-17T00:17:12.542Z,9.09
2023-02-17T00:17:52.610Z,9.02
2023-02-17T00:18:32.551Z,9.10
2023-02-17T00:19:25.403Z,8.97
2023-02-17T00:20:05.630Z,8.95
2023-02-17T00:20:45.608Z,8.97
2023-02-17T00:21:28.540Z,9.11
2023-02-17T00:22:09.626Z,9.15
2023-02-17T00:22:49.536Z,8.92
2023-02-17T00:23:29.633Z,9.07
2023-02-17T00:24:09.547Z,8.94
2023-02-17T00:24:49.651Z,9.03
2023-02-17T00:25:30.554Z,8.98
2023-02-17T00:26:14.911Z,9.08
2023-02-17T00:26:54.520Z,8.98
2023-02-17T00:27:34.599Z,9.00
2023-02-17T00:28:14.555Z,8.79
2023-02-17T00:28:55.612Z,8.89
2023-02-17T00:29:36.549Z,8.78
2023-02-17T00:30:17.185Z,8.91
2023-02-17T00:30:57.669Z,8.80
2023-02-17T00:31:37.690Z,9.00
2023-02-17T00:32:18.530Z,9.09
2023-02-17T00:32:58.602Z,9.03
2023-02-17T00:33:39.536Z,8.87
2023-02-17T00:34:19.682Z,9.00
2023-02-17T00:35:02.543Z,8.96
2023-02-17T00:35:46.610Z,9.02
2023-02-17T00:36:26.556Z,9.11
2023-02-17T00:37:06.617Z,9.00
2023-02-17T00:37:47.539Z,9.00
2023-02-17T00:38:27.577Z,9.00
2023-02-17T00:39:08.526Z,9.16
2023-02-17T00:39:48.656Z,9.17
2023-02-17T00:40:28.533Z,9.14
2023-02-17T00:41:08.634Z,9.27
2023-02-17T00:41:49.553Z,9.20
2023-02-17T00:42:29.647Z,9.28
2023-02-17T00:43:09.532Z,9.14
2023-02-17T00:43:49.587Z,9.23
2023-02-17T00:44:31.527Z,9.25
2023-02-17T00:45:12.581Z,9.35
2023-02-17T00:45:53.508Z,9.41
2023-02-17T00:46:33.636Z,9.46
2023-02-17T00:47:13.535Z,9.39
2023-02-17T00:47:53.654Z,9.42
2023-02-17T00:48:33.566Z,9.42
2023-02-17T00:49:13.590Z,9.43
2023-02-17T00:49:54.516Z,9.44
2023-02-17T00:50:34.627Z,9.35
2023-02-17T00:51:15.509Z,9.30
2023-02-17T00:51:56.611Z,9.45
2023-02-17T00:52:36.576Z,9.41
2023-02-17T00:53:16.571Z,9.50
2023-02-17T00:53:57.539Z,9.43
2023-02-17T00:54:38.984Z,9.36
2023-02-17T00:55:18.521Z,9.45
2023-02-17T00:55:58.608Z,9.38
2023-02-17T00:56:38.503Z,9.41
2023-02-17T00:57:32.584Z,9.61
2023-02-17T00:58:13.532Z,9.62
2023-02-17T00:58:53.582Z,9.57
2023-02-17T00:59:33.502Z,9.58
2023-02-17T01:00:14.550Z,9.74
2023-02-17T01:00:54.529Z,9.77
2023-02-17T01:01:34.677Z,9.72
2023-02-17T01:02:15.514Z,9.60
2023-02-17T01:02:55.582Z,9.72
2023-02-17T01:03:36.525Z,9.65
2023-02-17T01:04:16.567Z,9.72
2023-02-17T01:04:56.560Z,9.74
2023-02-17T01:05:36.579Z,9.67
2023-02-17T01:06:41.490Z,9.70
2023-02-17T01:07:21.630Z,9.58
2023-02-17T01:08:02.524Z,9.60
2023-02-17T01:08:49.583Z,9.62
2023-02-17T01:09:43.543Z,9.54
2023-02-17T01:10:37.504Z,9.46
2023-02-17T01:11:33.510Z,9.49
2023-02-17T01:12:27.514Z,9.58
2023-02-17T01:13:22.516Z,9.47
2023-02-17T01:14:12.530Z,9.48
2023-02-17T01:14:46.579Z,9.44
2023-02-17T01:15:33.650Z,9.42
2023-02-17T01:16:07.995Z,9.36
2023-02-17T01:16:56.508Z,9.45
2023-02-17T01:17:30.599Z,9.50
2023-02-17T01:18:17.488Z,9.55
2023-02-17T01:18:51.624Z,9.45
2023-02-17T01:19:31.509Z,9.56
2023-02-17T01:20:12.579Z,9.52
2023-02-17T01:20:52.518Z,9.50
2023-02-17T01:21:35.614Z,9.43
2023-02-17T01:22:17.506Z,9.44
2023-02-17T01:22:57.547Z,9.44
2023-02-17T01:23:37.499Z,9.39
2023-02-17T01:24:18.551Z,9.42
2023-02-17T01:24:58.586Z,9.18
2023-02-17T01:25:42.571Z,9.40
2023-02-17T01:26:26.517Z,9.35
2023-02-17T01:27:06.586Z,9.39
2023-02-17T01:27:46.500Z,9.27
2023-02-17T01:28:28.567Z,9.32
2023-02-17T01:29:10.527Z,9.22
2023-02-17T01:29:52.663Z,9.16
2023-02-17T01:30:32.526Z,9.20
2023-02-17T01:31:15.568Z,9.30
2023-02-17T01:31:55.520Z,9.24
2023-02-17T01:32:35.581Z,9.29
2023-02-17T01:33:16.501Z,9.31
2023-02-17T01:33:57.612Z,9.21
2023-02-17T01:34:37.518Z,9.26
2023-02-17T01:35:17.556Z,9.22
2023-02-17T01:35:57.509Z,9.31
2023-02-17T01:36:38.606Z,9.29
2023-02-17T01:37:18.475Z,9.19
2023-02-17T01:37:58.561Z,9.20
2023-02-17T01:38:39.475Z,9.22
2023-02-17T01:39:23.543Z,9.30
2023-02-17T01:40:03.480Z,9.25
2023-02-17T01:40:43.567Z,9.03
2023-02-17T01:41:27.496Z,9.11
2023-02-17T01:42:07.539Z,9.17
2023-02-17T01:42:48.495Z,9.21
2023-02-17T01:43:28.528Z,9.26
2023-02-17T01:44:23.464Z,9.24
2023-02-17T01:45:25.543Z,9.28
2023-02-17T01:46:08.503Z,9.23
2023-02-17T01:46:54.557Z,9.32
2023-02-17T01:47:28.527Z,9.22
2023-02-17T01:48:22.481Z,9.33
2023-02-17T01:48:57.528Z,9.24
2023-02-17T01:49:46.485Z,9.31
2023-02-17T01:50:20.522Z,9.35
2023-02-17T01:51:17.450Z,9.28
2023-02-17T01:52:02.483Z,9.23
2023-02-17T01:52:57.659Z,9.44
2023-02-17T01:54:12.474Z,9.48
2023-02-17T01:55:13.530Z,9.41
2023-02-17T01:56:07.699Z,9.45
2023-02-17T01:57:02.504Z,9.38
2023-02-17T01:57:57.456Z,9.52
2023-02-17T01:58:54.451Z,9.37
2023-02-17T01:59:50.708Z,9.29
2023-02-17T02:00:33.534Z,9.30
2023-02-17T02:01:14.796Z,9.32
2023-02-17T02:01:58.675Z,9.35
2023-02-17T02:02:39.606Z,9.30
2023-02-17T02:03:20.644Z,9.25
2023-02-17T02:04:01.693Z,9.31
2023-02-17T02:04:45.498Z,9.24
2023-02-17T02:05:27.535Z,9.27
2023-02-17T02:06:10.607Z,9.14
2023-02-17T02:06:51.456Z,9.26
2023-02-17T02:07:48.507Z,9.18
2023-02-17T02:08:22.138Z,9.19
2023-02-17T02:09:20.512Z,9.28
2023-02-17T02:09:56.597Z,9.37
2023-02-17T02:10:43.455Z,9.32
2023-02-17T02:11:17.137Z,9.30
2023-02-17T02:12:06.459Z,9.42
2023-02-17T02:12:43.095Z,9.48
2023-02-17T02:13:24.460Z,9.42
2023-02-17T02:13:58.554Z,9.21
2023-02-17T02:14:32.141Z,9.10
2023-02-17T02:15:29.421Z,9.44
2023-02-17T02:16:13.512Z,9.30
2023-02-17T02:17:44.285Z,9.37
2023-02-17T02:18:45.475Z,9.30
2023-02-17T02:19:48.489Z,9.36
2023-02-17T02:20:50.996Z,9.36
2023-02-17T02:21:56.423Z,9.43
2023-02-17T02:22:57.526Z,9.41
2023-02-17T02:24:14.444Z,9.32
2023-02-17T02:25:12.492Z,9.48
2023-02-17T02:26:17.439Z,9.22
2023-02-17T02:27:25.533Z,9.25
2023-02-17T02:28:22.429Z,9.39
2023-02-17T02:30:09.455Z,9.42
2023-02-17T02:31:23.914Z,9.32
2023-02-17T02:32:17.426Z,9.28
2023-02-17T02:33:12.457Z,9.40
2023-02-17T02:34:30.429Z,9.35
2023-02-17T02:35:26.443Z,9.52
2023-02-17T02:36:28.523Z,9.25
2023-02-17T02:37:20.403Z,9.39
2023-02-17T02:38:25.614Z,9.47
2023-02-17T02:39:11.433Z,9.40
2023-02-17T02:39:55.494Z,9.37
2023-02-17T02:40:41.431Z,9.39
2023-02-17T02:41:33.604Z,9.35
2023-02-17T02:42:18.467Z,9.38
2023-02-17T02:42:59.451Z,9.47
2023-02-17T02:43:39.419Z,9.45
2023-02-17T02:44:22.482Z,9.46
2023-02-17T02:45:03.414Z,9.19
2023-02-17T02:45:51.502Z,9.43
2023-02-17T02:46:25.137Z,9.52
2023-02-17T02:47:15.403Z,9.51
2023-02-17T02:47:53.171Z,9.50
2023-02-17T02:48:41.396Z,9.57
2023-02-17T02:49:15.171Z,9.63
2023-02-17T02:50:03.399Z,9.52
2023-02-17T02:51:20.430Z,9.62
2023-02-17T02:52:32.546Z,9.51
2023-02-17T02:53:25.407Z,9.56
2023-02-17T02:54:28.437Z,9.73
2023-02-17T02:55:19.399Z,9.75
2023-02-17T02:56:28.399Z,9.70
2023-02-17T02:57:43.409Z,9.84
2023-02-17T02:59:32.435Z,9.82
2023-02-17T03:00:46.386Z,9.84
2023-02-17T03:02:13.456Z,9.93
2023-02-17T03:03:20.403Z,9.90
2023-02-17T03:04:53.394Z,9.88
2023-02-17T03:06:29.381Z,9.85
2023-02-17T03:07:41.424Z,9.89
2023-02-17T03:08:52.395Z,9.81
2023-02-17T03:09:47.382Z,9.98
2023-02-17T03:10:41.395Z,9.84
2023-02-17T03:11:39.387Z,9.79
2023-02-17T03:12:34.394Z,9.74
2023-02-17T03:13:14.404Z,9.97
2023-02-17T03:13:54.446Z,9.99
2023-02-17T03:14:35.384Z,9.96
2023-02-17T03:15:34.464Z,10.00
2023-02-17T03:16:15.389Z,9.96
2023-02-17T03:16:56.534Z,10.02
2023-02-17T03:17:39.392Z,9.87
2023-02-17T03:18:26.408Z,9.89
2023-02-17T03:19:22.411Z,9.73
2023-02-17T03:20:18.363Z,9.75
2023-02-17T03:21:20.428Z,9.70
2023-02-17T03:22:31.417Z,9.52
2023-02-17T03:23:25.359Z,9.69
2023-02-17T03:24:05.375Z,9.70
2023-02-17T03:24:45.431Z,9.81
2023-02-17T03:25:25.372Z,9.76
2023-02-17T03:26:05.658Z,9.85
2023-02-17T03:26:45.359Z,9.90
2023-02-17T03:27:25.422Z,9.83
2023-02-17T03:28:05.363Z,9.90
2023-02-17T03:28:45.364Z,9.82
2023-02-17T03:29:19.414Z,9.81
2023-02-17T03:30:06.401Z,9.95
2023-02-17T03:30:40.463Z,10.04
2023-02-17T03:31:29.707Z,9.92
2023-02-17T03:32:04.516Z,9.82
2023-02-17T03:32:51.367Z,9.84
2023-02-17T03:33:25.450Z,9.90
2023-02-17T03:34:06.377Z,9.79
2023-02-17T03:34:46.425Z,9.65
2023-02-17T03:35:26.376Z,9.67
2023-02-17T03:36:06.723Z,9.74
2023-02-17T03:36:47.390Z,9.72
2023-02-17T03:37:27.422Z,9.66
2023-02-17T03:38:08.354Z,9.68
2023-02-17T03:38:48.456Z,9.73
2023-02-17T03:39:28.374Z,9.70
2023-02-17T03:40:08.405Z,9.72
2023-02-17T03:40:48.347Z,9.70
2023-02-17T03:41:28.409Z,9.75
2023-02-17T03:42:09.340Z,9.58
2023-02-17T03:42:49.401Z,9.66
2023-02-17T03:43:29.397Z,9.77
2023-02-17T03:44:09.424Z,9.70
2023-02-17T03:44:49.363Z,9.67
2023-02-17T03:45:29.479Z,9.73
2023-02-17T03:46:10.386Z,9.46
2023-02-17T03:46:52.410Z,9.57
2023-02-17T03:47:33.345Z,9.76
2023-02-17T03:48:13.404Z,9.54
2023-02-17T03:48:53.324Z,9.67
2023-02-17T03:49:33.399Z,9.35
2023-02-17T03:50:14.402Z,9.45
2023-02-17T03:50:54.444Z,9.56
2023-02-17T03:51:34.344Z,9.57
2023-02-17T03:52:14.399Z,9.49
2023-02-17T03:52:54.340Z,9.58
2023-02-17T03:53:34.423Z,9.54
2023-02-17T03:54:15.338Z,9.42
2023-02-17T03:54:55.384Z,9.52
2023-02-17T03:55:35.385Z,9.60
2023-02-17T03:56:16.407Z,9.62
2023-02-17T03:56:56.355Z,9.57
2023-02-17T03:57:36.412Z,9.73
2023-02-17T03:58:17.346Z,9.55
2023-02-17T03:58:57.392Z,9.57
2023-02-17T03:59:37.325Z,9.64
2023-02-17T04:00:18.405Z,9.66
2023-02-17T04:00:58.363Z,9.58
2023-02-17T04:01:38.424Z,9.61
2023-02-17T04:02:19.322Z,9.49
2023-02-17T04:02:59.604Z,9.60
2023-02-17T04:03:41.329Z,9.57
2023-02-17T04:04:21.412Z,9.65
2023-02-17T04:05:01.334Z,9.62
2023-02-17T04:05:41.452Z,9.45
2023-02-17T04:06:22.401Z,9.52
2023-02-17T04:07:02.367Z,9.51
2023-02-17T04:07:42.321Z,9.41
2023-02-17T04:08:22.403Z,9.36
2023-02-17T04:09:02.294Z,9.40
2023-02-17T04:09:42.382Z,9.27
2023-02-17T04:10:23.352Z,9.31
2023-02-17T04:11:06.389Z,9.37
2023-02-17T04:11:46.338Z,9.39
2023-02-17T04:12:26.387Z,9.31
2023-02-17T04:13:06.305Z,9.41
2023-02-17T04:13:46.430Z,9.36
2023-02-17T04:14:27.309Z,9.30
2023-02-17T04:15:07.357Z,9.30
2023-02-17T04:15:47.379Z,9.04
2023-02-17T04:16:27.411Z,9.17
2023-02-17T04:17:07.395Z,9.28
2023-02-17T04:17:47.375Z,9.37
2023-02-17T04:18:28.308Z,9.37
2023-02-17T04:19:08.388Z,9.37
2023-02-17T04:19:48.320Z,9.42
2023-02-17T04:20:28.389Z,9.51
2023-02-17T04:21:09.334Z,9.46
2023-02-17T04:21:49.435Z,9.20
2023-02-17T04:22:30.336Z,9.28
2023-02-17T04:23:10.479Z,9.20
2023-02-17T04:23:50.317Z,9.28
2023-02-17T04:24:30.391Z,9.21
2023-02-17T04:25:11.315Z,9.25
2023-02-17T04:25:51.374Z,9.17
2023-02-17T04:26:32.297Z,9.13
2023-02-17T04:27:13.352Z,9.29
2023-02-17T04:27:53.316Z,9.32
2023-02-17T04:28:33.358Z,9.37
2023-02-17T04:29:13.300Z,9.33
2023-02-17T04:29:53.369Z,9.31
2023-02-17T04:30:34.403Z,9.26
2023-02-17T04:31:14.529Z,9.36
2023-02-17T04:31:54.437Z,9.22
2023-02-17T04:32:34.356Z,9.13
2023-02-17T04:33:14.342Z,9.04
2023-02-17T04:33:54.826Z,9.15
2023-02-17T04:34:35.276Z,9.24
2023-02-17T04:35:15.361Z,9.08
2023-02-17T04:35:55.297Z,9.13
2023-02-17T04:36:35.355Z,9.22
2023-02-17T04:37:15.292Z,9.22
2023-02-17T04:37:55.376Z,9.18
2023-02-17T04:38:39.304Z,9.16
2023-02-17T04:39:19.399Z,9.15
2023-02-17T04:40:00.281Z,9.25
2023-02-17T04:40:40.426Z,9.38
2023-02-17T04:41:20.270Z,9.42
2023-02-17T04:42:00.373Z,9.36
2023-02-17T04:42:40.307Z,9.36
2023-02-17T04:43:20.346Z,9.40
2023-02-17T04:44:00.362Z,9.41
2023-02-17T04:44:40.339Z,9.32
2023-02-17T04:45:21.299Z,9.45
2023-02-17T04:46:02.706Z,9.47
2023-02-17T04:46:42.275Z,9.52
2023-02-17T04:47:22.893Z,9.46
2023-02-17T04:48:03.255Z,9.63
2023-02-17T04:48:43.350Z,9.43
2023-02-17T04:49:23.325Z,9.44
2023-02-17T04:50:03.340Z,9.43
2023-02-17T04:50:43.284Z,9.50
2023-02-17T04:51:23.340Z,9.52
2023-02-17T04:52:03.284Z,9.49
2023-02-17T04:52:44.394Z,9.65
2023-02-17T04:53:25.264Z,9.64
2023-02-17T04:54:05.349Z,9.69
2023-02-17T04:54:45.307Z,9.60
2023-02-17T04:55:25.343Z,9.61
2023-02-17T04:56:05.560Z,9.58
2023-02-17T04:56:46.338Z,9.59
2023-02-17T04:57:26.269Z,9.58
2023-02-17T04:58:06.359Z,9.64
2023-02-17T04:58:46.273Z,9.56
2023-02-17T04:59:26.306Z,9.49
2023-02-17T05:00:07.281Z,9.51
2023-02-17T05:00:47.331Z,9.48
2023-02-17T05:01:27.293Z,9.46
2023-02-17T05:02:07.323Z,9.46
2023-02-17T05:02:47.270Z,9.49
2023-02-17T05:03:27.328Z,9.51
2023-02-17T05:04:07.290Z,9.55
2023-02-17T05:04:47.454Z,9.62
2023-02-17T05:05:27.280Z,9.46
2023-02-17T05:06:07.550Z,9.46
2023-02-17T05:06:47.253Z,9.52
2023-02-17T05:07:27.324Z,9.63
2023-02-17T05:08:08.275Z,9.59
2023-02-17T05:08:48.356Z,9.38
2023-02-17T05:09:28.259Z,9.37
2023-02-17T05:10:08.325Z,9.53
2023-02-17T05:10:48.317Z,9.58
2023-02-17T05:11:28.327Z,9.53
2023-02-17T05:12:09.263Z,9.42
2023-02-17T05:12:49.306Z,9.60
2023-02-17T05:13:29.238Z,9.38
2023-02-17T05:14:09.397Z,9.47
2023-02-17T05:14:49.254Z,9.56
2023-02-17T05:15:43.262Z,9.57
2023-02-17T05:16:23.350Z,9.65
2023-02-17T05:17:03.325Z,9.61
2023-02-17T05:17:44.253Z,9.61
2023-02-17T05:18:24.372Z,9.64
2023-02-17T05:19:04.240Z,9.72
2023-02-17T05:19:44.307Z,9.60
2023-02-17T05:20:25.271Z,9.62
2023-02-17T05:21:05.372Z,9.60
2023-02-17T05:21:45.279Z,9.59
2023-02-17T05:22:25.316Z,9.61
2023-02-17T05:23:05.245Z,9.61
2023-02-17T05:23:45.318Z,9.63
2023-02-17T05:24:25.245Z,9.54
2023-02-17T05:25:05.301Z,9.62
2023-02-17T05:25:47.228Z,9.61
2023-02-17T05:26:27.391Z,9.46
2023-02-17T05:27:07.252Z,9.63
2023-02-17T05:27:47.423Z,9.56
2023-02-17T05:28:27.261Z,9.45
2023-02-17T05:29:07.303Z,9.36
2023-02-17T05:29:47.235Z,9.43
2023-02-17T05:30:27.358Z,9.35
2023-02-17T05:31:08.275Z,9.37
2023-02-17T05:31:49.391Z,9.39
2023-02-17T05:32:30.242Z,9.35
2023-02-17T05:33:10.341Z,9.39
2023-02-17T05:33:51.234Z,9.31
2023-02-17T05:34:31.310Z,9.45
2023-02-17T05:35:12.271Z,9.46
2023-02-17T05:35:52.329Z,9.52
2023-02-17T05:36:32.231Z,9.29
2023-02-17T05:37:12.386Z,9.39
2023-02-17T05:37:52.257Z,9.36
2023-02-17T05:38:32.285Z,9.35
2023-02-17T05:39:12.248Z,9.23
2023-02-17T05:39:52.303Z,9.45
2023-02-17T05:40:32.263Z,9.46
2023-02-17T05:41:13.344Z,9.38
2023-02-17T05:41:54.145Z,9.18
2023-02-17T05:42:35.329Z,9.41
2023-02-17T05:43:16.274Z,9.41
2023-02-17T05:43:57.306Z,9.51
2023-02-17T05:44:38.252Z,9.50
2023-02-17T05:45:18.306Z,9.31
2023-02-17T05:45:58.235Z,9.40
2023-02-17T05:46:38.431Z,9.47
2023-02-17T05:47:18.270Z,9.37
2023-02-17T05:48:12.244Z,9.34
2023-02-17T05:48:53.267Z,9.30
2023-02-17T05:49:33.322Z,9.34
2023-02-17T05:50:14.234Z,9.51
2023-02-17T05:50:54.314Z,9.52
2023-02-17T05:51:34.239Z,9.40
2023-02-17T05:52:16.778Z,9.40
2023-02-17T05:52:57.242Z,9.26
2023-02-17T05:53:37.321Z,9.44
2023-02-17T05:54:17.259Z,9.40
2023-02-17T05:54:57.417Z,9.49
2023-02-17T05:55:38.249Z,9.36
2023-02-17T05:56:19.281Z,9.40
2023-02-17T05:56:59.224Z,9.42
2023-02-17T05:57:39.292Z,9.36
2023-02-17T05:58:19.201Z,9.37
2023-02-17T05:59:00.450Z,9.31
2023-02-17T05:59:40.246Z,9.29
2023-02-17T06:00:21.357Z,9.35
2023-02-17T06:01:01.248Z,9.26
2023-02-17T06:01:41.322Z,9.37
2023-02-17T06:02:21.282Z,9.46
2023-02-17T06:03:01.436Z,9.25
2023-02-17T06:03:41.223Z,9.36
2023-02-17T06:04:22.352Z,9.51
2023-02-17T06:05:02.305Z,9.32
2023-02-17T06:05:42.312Z,9.24
2023-02-17T06:06:22.241Z,9.32
2023-02-17T06:07:02.321Z,9.39
2023-02-17T06:07:42.235Z,9.35
2023-02-17T06:08:22.351Z,9.29
2023-02-17T06:09:02.234Z,9.50
2023-02-17T06:09:42.365Z,9.49
2023-02-17T06:10:23.231Z,9.48
2023-02-17T06:11:03.284Z,9.51
2023-02-17T06:11:44.225Z,9.56
2023-02-17T06:12:25.283Z,9.58
2023-02-17T06:13:06.341Z,9.53
2023-02-17T06:13:46.986Z,9.35
2023-02-17T06:14:27.247Z,9.42
2023-02-17T06:15:07.284Z,9.38
2023-02-17T06:15:48.292Z,9.39
2023-02-17T06:16:29.679Z,9.38
2023-02-17T06:17:10.258Z,9.29
2023-02-17T06:17:50.296Z,9.43
2023-02-17T06:18:31.206Z,9.36
2023-02-17T06:19:11.305Z,9.25
2023-02-17T06:19:51.252Z,9.37
2023-02-17T06:20:32.312Z,9.34
2023-02-17T06:21:13.285Z,9.43
2023-02-17T06:21:53.318Z,9.41
2023-02-17T06:22:33.200Z,9.41
2023-02-17T06:23:13.269Z,9.50
2023-02-17T06:23:54.245Z,9.34
2023-02-17T06:24:35.277Z,9.45
2023-02-17T06:25:16.235Z,9.48
2023-02-17T06:25:56.295Z,9.45
2023-02-17T06:26:36.232Z,9.40
2023-02-17T06:27:16.313Z,9.49
2023-02-17T06:27:56.231Z,9.21
2023-02-17T06:28:36.254Z,9.35
2023-02-17T06:29:16.248Z,9.33
2023-02-17T06:29:56.296Z,9.37
2023-02-17T06:30:37.195Z,9.36
2023-02-17T06:31:17.330Z,9.23
2023-02-17T06:31:57.281Z,9.37
2023-02-17T06:32:38.287Z,9.47
2023-02-17T06:33:19.183Z,9.25
2023-02-17T06:33:59.355Z,9.26
2023-02-17T06:34:39.296Z,9.39
2023-02-17T06:35:19.324Z,9.46
2023-02-17T06:35:59.222Z,9.29
2023-02-17T06:36:40.325Z,9.24
2023-02-17T06:37:24.212Z,9.35
2023-02-17T06:38:04.293Z,9.18
2023-02-17T06:38:44.183Z,9.22
2023-02-17T06:39:24.339Z,9.25
2023-02-17T06:40:05.177Z,9.22
2023-02-17T06:40:45.257Z,9.18
2023-02-17T06:41:25.167Z,9.23
2023-02-17T06:42:19.195Z,9.08
2023-02-17T06:42:59.203Z,9.12
2023-02-17T06:43:39.245Z,9.13
2023-02-17T06:44:20.201Z,9.10
2023-02-17T06:45:00.845Z,9.20
2023-02-17T06:45:41.274Z,9.30
2023-02-17T06:46:21.317Z,9.16
2023-02-17T06:47:01.220Z,9.27
2023-02-17T06:47:42.266Z,9.21
2023-02-17T06:48:23.205Z,9.20
2023-02-17T06:49:03.326Z,9.07
2023-02-17T06:49:43.182Z,9.14
2023-02-17T06:50:23.313Z,9.10
2023-02-17T06:51:03.208Z,9.22
2023-02-17T06:51:43.262Z,9.27
2023-02-17T06:52:24.178Z,9.07
2023-02-17T06:53:04.257Z,9.06
2023-02-17T06:53:45.215Z,9.09
2023-02-17T06:54:25.286Z,8.97
2023-02-17T06:55:05.185Z,9.24
2023-02-17T06:55:45.277Z,9.30
2023-02-17T06:56:26.142Z,9.07
2023-02-17T06:57:06.261Z,9.00
2023-02-17T06:57:46.175Z,8.95
2023-02-17T06:58:26.275Z,8.91
2023-02-17T06:59:08.196Z,9.13
2023-02-17T06:59:48.365Z,9.08
2023-02-17T07:00:29.184Z,9.09
2023-02-17T07:01:09.568Z,9.14
2023-02-17T07:01:49.271Z,9.20
2023-02-17T07:02:29.313Z,9.15
2023-02-17T07:03:09.187Z,9.23
2023-02-17T07:03:49.303Z,9.18
2023-02-17T07:04:30.219Z,9.27
2023-02-17T07:05:11.275Z,9.20
2023-02-17T07:05:51.184Z,9.30
2023-02-17T07:06:32.259Z,9.22
2023-02-17T07:07:13.174Z,9.15
2023-02-17T07:07:53.608Z,9.16
2023-02-17T07:08:34.239Z,9.16
2023-02-17T07:09:14.281Z,9.20
2023-02-17T07:09:54.189Z,9.16
2023-02-17T07:10:34.474Z,9.17
2023-02-17T07:11:17.160Z,9.24
2023-02-17T07:12:00.168Z,9.27
2023-02-17T07:12:41.170Z,9.14
2023-02-17T07:13:21.256Z,9.27
2023-02-17T07:14:01.161Z,9.26
2023-02-17T07:14:42.246Z,9.27
2023-02-17T07:15:22.205Z,9.19
2023-02-17T07:16:02.274Z,9.24
2023-02-17T07:16:43.225Z,9.35
2023-02-17T07:17:23.546Z,9.27
2023-02-17T07:18:03.176Z,9.13
2023-02-17T07:18:44.293Z,9.26
2023-02-17T07:19:24.165Z,9.15
2023-02-17T07:20:04.319Z,9.29
2023-02-17T07:20:45.241Z,9.12
2023-02-17T07:21:25.230Z,8.93
2023-02-17T07:22:05.160Z,9.12
2023-02-17T07:22:45.236Z,9.24
2023-02-17T07:23:26.181Z,9.19
2023-02-17T07:24:06.220Z,9.21
2023-02-17T07:24:47.174Z,9.23
2023-02-17T07:25:27.273Z,9.18
2023-02-17T07:26:15.168Z,9.19
2023-02-17T07:26:56.279Z,9.20
2023-02-17T07:27:37.147Z,9.24
2023-02-17T07:28:17.205Z,9.19
2023-02-17T07:28:58.190Z,9.17
2023-02-17T07:29:38.261Z,9.26
2023-02-17T07:30:19.144Z,9.18
2023-02-17T07:30:59.274Z,9.08
2023-02-17T07:31:40.260Z,9.13
2023-02-17T07:32:20.207Z,8.95
2023-02-17T07:33:01.172Z,9.09
2023-02-17T07:33:42.254Z,9.09
2023-02-17T07:34:22.149Z,9.14
2023-02-17T07:35:02.228Z,9.21
2023-02-17T07:35:50.127Z,9.29
2023-02-17T07:36:30.259Z,9.18
2023-02-17T07:37:11.157Z,9.24
2023-02-17T07:37:51.662Z,9.18
2023-02-17T07:38:33.362Z,9.06
2023-02-17T07:39:13.249Z,9.21
2023-02-17T07:39:54.156Z,9.18
2023-02-17T07:40:35.261Z,9.21
2023-02-17T07:41:23.145Z,9.18
2023-02-17T07:42:05.096Z,9.15
2023-02-17T07:42:46.157Z,9.18
2023-02-17T07:43:26.220Z,9.21
2023-02-17T07:44:07.140Z,9.45
2023-02-17T07:44:47.219Z,9.42
2023-02-17T07:45:28.158Z,9.51
2023-02-17T07:46:08.749Z,9.51
2023-02-17T07:46:50.217Z,9.26
2023-02-17T07:47:30.189Z,9.38
2023-02-17T07:48:11.184Z,9.36
2023-02-17T07:48:52.202Z,9.21
2023-02-17T07:49:33.138Z,9.26
2023-02-17T07:50:14.165Z,9.30
2023-02-17T07:50:54.123Z,9.22
2023-02-17T07:51:34.241Z,9.31
2023-02-17T07:52:14.148Z,9.11
2023-02-17T07:52:54.242Z,9.40
2023-02-17T07:53:35.126Z,9.25
2023-02-17T07:54:15.270Z,9.38
2023-02-17T07:54:55.094Z,9.26
2023-02-17T07:55:35.276Z,9.39
2023-02-17T07:56:19.102Z,9.35
2023-02-17T07:56:59.166Z,9.37
2023-02-17T07:57:40.138Z,9.29
2023-02-17T07:58:34.138Z,9.38
2023-02-17T07:59:19.104Z,9.43
2023-02-17T07:59:59.172Z,9.30
2023-02-17T08:00:39.132Z,9.36
2023-02-17T08:01:26.238Z,9.11
2023-02-17T08:02:07.165Z,9.15
2023-02-17T08:02:47.348Z,9.38
2023-02-17T08:03:27.091Z,9.26
2023-02-17T08:04:07.179Z,9.19
2023-02-17T08:04:41.178Z,9.14
2023-02-17T08:05:28.465Z,9.14
2023-02-17T08:06:02.171Z,9.22
2023-02-17T08:06:49.089Z,9.40
2023-02-17T08:07:23.183Z,9.36
2023-02-17T08:08:29.331Z,9.32
2023-02-17T08:09:29.107Z,9.34
2023-02-17T08:10:44.144Z,9.31
2023-02-17T08:11:56.083Z,9.28
2023-02-17T08:13:09.142Z,9.04
2023-02-17T08:14:03.119Z,9.00
2023-02-17T08:14:50.110Z,9.21
2023-02-17T08:15:24.191Z,9.23
2023-02-17T08:16:12.073Z,9.23
2023-02-17T08:16:46.283Z,9.22
2023-02-17T08:17:33.143Z,9.22
2023-02-17T08:18:07.269Z,9.17
2023-02-17T08:18:54.286Z,9.10
2023-02-17T08:19:36.651Z,9.30
2023-02-17T08:20:27.247Z,9.29
2023-02-17T08:21:08.375Z,9.25
2023-02-17T08:21:48.106Z,9.43
2023-02-17T08:22:28.166Z,9.46
2023-02-17T08:23:10.139Z,9.23
2023-02-17T08:23:50.217Z,9.18
2023-02-17T08:24:31.093Z,9.43
2023-02-17T08:25:12.149Z,9.26
2023-02-17T08:25:52.190Z,9.37
2023-02-17T08:26:32.181Z,9.32
2023-02-17T08:27:13.074Z,9.38
2023-02-17T08:27:54.433Z,9.31
2023-02-17T08:28:35.093Z,9.45
2023-02-17T08:29:15.229Z,9.32
2023-02-17T08:29:56.103Z,9.40
2023-02-17T08:30:38.323Z,9.44
2023-02-17T08:31:27.185Z,9.57
2023-02-17T08:32:07.242Z,9.49
2023-02-17T08:32:47.096Z,9.46
2023-02-17T08:33:27.144Z,9.61
2023-02-17T08:34:13.111Z,9.56
2023-02-17T08:34:53.217Z,9.66
2023-02-17T08:35:35.130Z,9.63
2023-02-17T08:36:16.223Z,9.44
2023-02-17T08:36:56.101Z,9.57
2023-02-17T08:37:36.189Z,9.49
2023-02-17T08:38:16.079Z,9.67
2023-02-17T08:38:57.175Z,9.66
2023-02-17T08:39:38.056Z,9.63
2023-02-17T08:40:21.117Z,9.66
2023-02-17T08:41:01.070Z,9.58
2023-02-17T08:41:44.200Z,9.64
2023-02-17T08:42:24.085Z,9.52
2023-02-17T08:43:04.211Z,9.40
2023-02-17T08:43:45.072Z,9.55
2023-02-17T08:44:26.171Z,9.63
2023-02-17T08:45:06.092Z,9.57
2023-02-17T08:45:46.263Z,9.60
2023-02-17T08:46:27.176Z,9.41
2023-02-17T08:47:07.282Z,9.48
2023-02-17T08:47:48.105Z,9.43
2023-02-17T08:48:28.173Z,9.53
2023-02-17T08:49:09.080Z,9.54
2023-02-17T08:49:49.159Z,9.74
2023-02-17T08:50:30.084Z,9.76
2023-02-17T08:51:11.156Z,9.76
2023-02-17T08:51:52.062Z,9.64
2023-02-17T08:52:32.156Z,9.48
2023-02-17T08:53:12.065Z,9.40
2023-02-17T08:53:52.211Z,9.51
2023-02-17T08:54:33.047Z,9.40
2023-02-17T08:55:15.143Z,9.50
2023-02-17T08:55:56.080Z,9.61
2023-02-17T08:56:37.221Z,9.60
2023-02-17T08:57:17.084Z,9.56
2023-02-17T08:57:57.200Z,9.63
2023-02-17T08:58:37.092Z,9.65
2023-02-17T08:59:19.133Z,9.52
2023-02-17T09:00:01.046Z,9.57
2023-02-17T09:00:41.172Z,9.49
2023-02-17T09:01:22.115Z,9.66
2023-02-17T09:02:02.146Z,9.61
2023-02-17T09:02:44.063Z,9.71
2023-02-17T09:03:25.328Z,9.68
2023-02-17T09:04:07.113Z,9.64
2023-02-17T09:04:47.198Z,9.67
2023-02-17T09:05:28.204Z,9.66
2023-02-17T09:06:08.408Z,9.57
2023-02-17T09:07:03.044Z,9.66
2023-02-17T09:07:43.095Z,9.76
2023-02-17T09:08:24.063Z,9.84
2023-02-17T09:09:04.149Z,9.78
2023-02-17T09:09:45.060Z,9.88
2023-02-17T09:10:25.170Z,9.84
2023-02-17T09:11:08.452Z,9.77
2023-02-17T09:11:51.118Z,9.78
2023-02-17T09:12:34.334Z,9.68
2023-02-17T09:13:14.660Z,9.84
2023-02-17T09:13:55.093Z,9.84
2023-02-17T09:14:36.106Z,9.86
2023-02-17T09:15:17.065Z,9.92
2023-02-17T09:15:57.268Z,10.02
2023-02-17T09:16:40.365Z,10.13
2023-02-17T09:17:21.117Z,10.05
2023-02-17T09:18:01.046Z,10.02
2023-02-17T09:18:41.171Z,9.89
2023-02-17T09:19:21.052Z,9.89
2023-02-17T09:20:01.128Z,9.83
2023-02-17T09:20:43.044Z,9.85
2023-02-17T09:21:23.180Z,9.89
2023-02-17T09:22:04.071Z,9.80
2023-02-17T09:22:44.143Z,9.94
2023-02-17T09:23:25.047Z,10.02
2023-02-17T09:24:05.123Z,9.95
2023-02-17T09:24:48.357Z,9.84
2023-02-17T09:25:29.209Z,9.94
2023-02-17T09:26:16.157Z,10.05
2023-02-17T09:26:56.107Z,9.83
2023-02-17T09:27:36.020Z,9.60
2023-02-17T09:28:16.199Z,9.70
2023-02-17T09:28:57.050Z,9.77
2023-02-17T09:29:37.320Z,9.87
2023-02-17T09:30:18.118Z,9.81
2023-02-17T09:30:58.228Z,9.91
2023-02-17T09:31:39.127Z,9.90
2023-02-17T09:32:19.228Z,9.91